createdAt,value
2017-12-22T00:00:44.406Z,84.20
2017-12-22T00:03:19.268Z,84.11
2017-12-22T00:05:54.222Z,84.18
2017-12-22T00:08:28.683Z,84.19
2017-12-22T00:11:03.125Z,84.19
2017-12-22T00:13:37.560Z,84.15
2017-12-22T00:16:12.053Z,84.21
2017-12-22T00:18:46.558Z,84.45
2017-12-22T00:21:20.926Z,84.54
2017-12-22T00:23:55.421Z,84.55
2017-12-22T00:26:29.820Z,84.84
2017-12-22T00:29:04.310Z,84.69
2017-12-22T00:31:38.741Z,84.69
2017-12-22T00:34:13.226Z,84.71
2017-12-22T00:36:47.686Z,84.67
2017-12-22T00:39:22.226Z,84.67
2017-12-22T00:41:57.287Z,84.65
2017-12-22T00:44:31.942Z,84.60
2017-12-22T00:47:06.398Z,84.52
2017-12-22T00:49:40.982Z,84.32
2017-12-22T00:52:15.410Z,84.37
2017-12-22T00:54:50.502Z,84.47
2017-12-22T00:57:25.116Z,84.23
2017-12-22T00:59:59.624Z,84.24
2017-12-22T01:02:33.994Z,84.24
2017-12-22T01:05:09.465Z,84.18
2017-12-22T01:07:43.921Z,84.29
2017-12-22T01:10:18.290Z,84.23
2017-12-22T01:12:52.852Z,84.23
2017-12-22T01:15:32.609Z,84.21
2017-12-22T01:18:12.650Z,84.08
2017-12-22T01:20:47.187Z,84.05
2017-12-22T01:23:21.698Z,84.12
2017-12-22T01:25:56.142Z,84.10
2017-12-22T01:28:30.658Z,84.21
2017-12-22T01:31:05.238Z,84.34
2017-12-22T01:33:39.792Z,84.44
2017-12-22T01:36:14.216Z,84.42
2017-12-22T01:38:49.622Z,84.61
2017-12-22T01:41:25.074Z,84.62
2017-12-22T01:43:59.670Z,84.78
2017-12-22T01:46:34.149Z,84.76
2017-12-22T01:49:08.726Z,84.92
2017-12-22T01:51:43.235Z,84.67
2017-12-22T01:54:17.795Z,84.69
2017-12-22T01:56:52.238Z,84.77
2017-12-22T01:59:26.902Z,84.71
2017-12-22T02:02:01.351Z,84.46
2017-12-22T02:04:35.962Z,84.47
2017-12-22T02:07:10.390Z,84.48
2017-12-22T02:09:45.028Z,84.53
2017-12-22T02:12:19.456Z,84.51
2017-12-22T02:14:53.991Z,84.62
2017-12-22T02:17:28.490Z,84.74
2017-12-22T02:20:03.521Z,84.71
2017-12-22T02:22:38.030Z,84.76
2017-12-22T02:25:12.458Z,84.91
2017-12-22T02:27:46.986Z,84.87
2017-12-22T02:30:21.407Z,84.89
2017-12-22T02:32:55.894Z,84.98
2017-12-22T02:35:31.303Z,85.07
2017-12-22T02:38:05.864Z,84.98
2017-12-22T02:40:40.225Z,85.06
2017-12-22T02:43:14.810Z,85.04
2017-12-22T02:45:49.283Z,85.16
2017-12-22T02:48:23.819Z,85.06
2017-12-22T02:50:58.198Z,84.95
2017-12-22T02:53:32.712Z,84.98
2017-12-22T02:56:07.519Z,85.00
2017-12-22T02:58:41.898Z,84.99
2017-12-22T03:01:16.300Z,85.01
2017-12-22T03:03:50.866Z,84.80
2017-12-22T03:06:25.234Z,84.68
2017-12-22T03:08:59.758Z,84.82
2017-12-22T03:11:34.210Z,84.72
2017-12-22T03:14:08.698Z,84.56
2017-12-22T03:16:43.114Z,84.51
2017-12-22T03:19:17.631Z,84.45
2017-12-22T03:21:52.036Z,84.12
2017-12-22T03:24:26.522Z,83.88
2017-12-22T03:27:00.905Z,83.87
2017-12-22T03:29:35.413Z,83.80
2017-12-22T03:32:09.794Z,83.55
2017-12-22T03:34:44.292Z,83.37
2017-12-22T03:37:18.778Z,83.31
2017-12-22T03:39:53.341Z,83.05
2017-12-22T03:42:27.724Z,82.96
2017-12-22T03:45:02.254Z,83.01
2017-12-22T03:47:38.710Z,83.11
2017-12-22T03:50:13.201Z,82.91
2017-12-22T03:52:47.717Z,82.69
2017-12-22T03:55:22.222Z,82.53
2017-12-22T03:57:56.734Z,82.60
2017-12-22T04:00:31.202Z,82.38
2017-12-22T04:03:05.726Z,82.43
2017-12-22T04:05:40.118Z,82.28
2017-12-22T04:08:14.478Z,82.28
2017-12-22T04:10:48.923Z,82.05
2017-12-22T04:13:23.474Z,81.98
2017-12-22T04:15:57.927Z,82.05
2017-12-22T04:18:32.543Z,82.06
2017-12-22T04:21:06.917Z,81.94
2017-12-22T04:23:41.917Z,81.90
2017-12-22T04:26:17.138Z,81.79
2017-12-22T04:28:51.638Z,81.84
2017-12-22T04:31:26.082Z,81.84
2017-12-22T04:34:00.775Z,81.69
2017-12-22T04:36:35.153Z,81.79
2017-12-22T04:39:09.585Z,81.66
2017-12-22T04:41:43.934Z,81.61
2017-12-22T04:44:18.534Z,81.78
2017-12-22T04:46:52.934Z,81.83
2017-12-22T04:49:27.415Z,81.65
2017-12-22T04:52:01.872Z,81.86
2017-12-22T04:54:36.246Z,81.90
2017-12-22T04:57:10.629Z,82.16
2017-12-22T04:59:45.106Z,82.21
2017-12-22T05:02:19.582Z,82.19
2017-12-22T05:04:54.146Z,82.30
2017-12-22T05:07:28.538Z,82.26
2017-12-22T05:10:02.915Z,82.36
2017-12-22T05:12:37.295Z,82.27
2017-12-22T05:15:11.710Z,82.27
2017-12-22T05:17:46.163Z,82.19
2017-12-22T05:20:21.258Z,82.06
2017-12-22T05:22:55.894Z,81.90
2017-12-22T05:25:30.374Z,81.93
2017-12-22T05:28:04.879Z,81.90
2017-12-22T05:30:39.472Z,81.90
2017-12-22T05:33:13.972Z,81.93
2017-12-22T05:35:48.457Z,81.99
2017-12-22T05:38:22.993Z,81.96
2017-12-22T05:40:57.437Z,82.00
2017-12-22T05:43:31.986Z,81.76
2017-12-22T05:46:06.379Z,81.63
2017-12-22T05:48:40.938Z,81.63
2017-12-22T05:51:15.347Z,81.59
2017-12-22T05:53:49.683Z,81.51
2017-12-22T05:56:24.166Z,81.38
2017-12-22T05:58:58.794Z,81.51
2017-12-22T06:01:33.157Z,81.36
2017-12-22T06:04:08.145Z,81.38
2017-12-22T06:06:42.663Z,81.35
2017-12-22T06:09:17.054Z,81.33
2017-12-22T06:11:51.457Z,81.18
2017-12-22T06:14:25.931Z,81.11
2017-12-22T06:17:00.349Z,81.23
2017-12-22T06:19:34.885Z,81.20
2017-12-22T06:22:09.302Z,81.19
2017-12-22T06:24:43.867Z,81.05
2017-12-22T06:27:18.227Z,81.04
2017-12-22T06:29:52.901Z,81.26
2017-12-22T06:32:27.263Z,81.08
2017-12-22T06:35:01.646Z,81.09
2017-12-22T06:37:36.143Z,81.05
2017-12-22T06:40:10.658Z,81.35
2017-12-22T06:42:45.150Z,81.27
2017-12-22T06:45:21.557Z,81.18
2017-12-22T06:47:56.647Z,81.33
2017-12-22T06:50:31.094Z,81.34
2017-12-22T06:53:06.529Z,81.50
2017-12-22T06:55:41.205Z,81.27
2017-12-22T06:58:15.808Z,81.30
2017-12-22T07:00:50.346Z,81.16
2017-12-22T07:03:24.758Z,81.34
2017-12-22T07:05:59.120Z,81.38
2017-12-22T07:08:33.499Z,81.47
2017-12-22T07:11:07.946Z,81.48
2017-12-22T07:13:42.599Z,81.65
2017-12-22T07:16:17.134Z,81.70
2017-12-22T07:18:52.053Z,81.81
2017-12-22T07:21:26.422Z,81.86
2017-12-22T07:24:00.948Z,82.01
2017-12-22T07:26:35.556Z,82.05
2017-12-22T07:29:10.156Z,82.25
2017-12-22T07:31:44.571Z,82.12
2017-12-22T07:34:19.065Z,82.23
2017-12-22T07:36:53.433Z,82.25
2017-12-22T07:39:27.844Z,82.29
2017-12-22T07:42:02.591Z,82.30
2017-12-22T07:44:37.128Z,82.47
2017-12-22T07:47:11.569Z,82.59
2017-12-22T07:49:46.069Z,82.55
2017-12-22T07:52:20.545Z,82.56
2017-12-22T07:54:55.089Z,82.66
2017-12-22T07:57:29.550Z,82.56
2017-12-22T08:00:04.002Z,82.40
2017-12-22T08:02:38.506Z,82.46
2017-12-22T08:05:12.907Z,82.47
2017-12-22T08:07:47.955Z,82.23
2017-12-22T08:10:22.502Z,82.31
2017-12-22T08:12:56.883Z,82.27
2017-12-22T08:15:31.330Z,81.90
2017-12-22T08:18:05.822Z,82.10
2017-12-22T08:20:40.243Z,81.91
2017-12-22T08:23:14.818Z,81.77
2017-12-22T08:25:49.403Z,81.65
2017-12-22T08:28:24.027Z,81.48
2017-12-22T08:30:58.390Z,81.35
2017-12-22T08:33:32.901Z,81.15
2017-12-22T08:36:07.641Z,81.12
2017-12-22T08:38:42.125Z,80.61
2017-12-22T08:41:16.566Z,80.52
2017-12-22T08:43:51.148Z,80.22
2017-12-22T08:46:25.550Z,80.34
2017-12-22T08:49:00.067Z,79.94
2017-12-22T08:51:35.735Z,79.67
2017-12-22T08:54:10.222Z,79.38
2017-12-22T08:56:44.614Z,78.99
2017-12-22T08:59:19.131Z,78.53
2017-12-22T09:01:53.553Z,78.61
2017-12-22T09:04:27.782Z,78.45
2017-12-22T09:07:03.034Z,77.78
2017-12-22T09:09:37.529Z,77.48
2017-12-22T09:12:11.924Z,76.97
2017-12-22T09:14:46.350Z,76.98
2017-12-22T09:17:20.796Z,76.93
2017-12-22T09:19:55.322Z,77.46
2017-12-22T09:22:29.731Z,76.81
2017-12-22T09:25:03.990Z,76.65
2017-12-22T09:27:38.711Z,76.23
2017-12-22T09:30:13.747Z,75.90
2017-12-22T09:32:48.462Z,76.12
2017-12-22T09:35:22.932Z,75.63
2017-12-22T09:37:57.336Z,75.46
2017-12-22T09:40:31.759Z,75.34
2017-12-22T09:43:06.463Z,75.83
2017-12-22T09:45:40.894Z,75.07
2017-12-22T09:48:15.606Z,74.83
2017-12-22T09:50:50.174Z,74.88
2017-12-22T09:53:24.733Z,74.81
2017-12-22T09:55:59.144Z,74.28
2017-12-22T09:58:33.731Z,74.11
2017-12-22T10:01:08.353Z,73.78
2017-12-22T10:03:42.908Z,73.57
2017-12-22T10:06:17.396Z,73.59
2017-12-22T10:08:51.791Z,74.53
2017-12-22T10:11:26.295Z,74.46
2017-12-22T10:14:00.779Z,74.56
2017-12-22T10:16:35.214Z,74.84
2017-12-22T10:19:09.790Z,74.84
2017-12-22T10:21:44.211Z,75.15
2017-12-22T10:24:18.569Z,74.43
2017-12-22T10:26:52.710Z,74.40
2017-12-22T10:29:27.121Z,74.42
2017-12-22T10:32:01.515Z,73.90
2017-12-22T10:34:36.042Z,74.36
2017-12-22T10:37:10.614Z,74.63
2017-12-22T10:39:45.157Z,74.51
2017-12-22T10:42:20.351Z,73.98
2017-12-22T10:44:54.784Z,73.88
2017-12-22T10:47:29.210Z,73.68
2017-12-22T10:50:04.300Z,73.52
2017-12-22T10:52:38.809Z,73.62
2017-12-22T10:55:13.254Z,73.30
2017-12-22T10:57:47.704Z,73.88
2017-12-22T11:00:21.545Z,74.22
2017-12-22T11:02:55.934Z,74.08
2017-12-22T11:05:30.399Z,73.73
2017-12-22T11:08:05.334Z,74.02
2017-12-22T11:10:39.914Z,73.75
2017-12-22T11:13:14.322Z,73.54
2017-12-22T11:15:48.715Z,74.11
2017-12-22T11:18:23.186Z,74.04
2017-12-22T11:20:57.549Z,74.33
2017-12-22T11:23:32.881Z,74.40
2017-12-22T11:26:07.354Z,74.27
2017-12-22T11:28:41.855Z,74.27
2017-12-22T11:31:17.250Z,74.16
2017-12-22T11:33:51.806Z,74.15
2017-12-22T11:36:26.245Z,74.25
2017-12-22T11:39:00.814Z,74.32
2017-12-22T11:41:35.309Z,74.46
2017-12-22T11:44:09.998Z,74.44
2017-12-22T11:46:44.588Z,74.33
2017-12-22T11:49:19.122Z,73.99
2017-12-22T11:51:53.718Z,73.85
2017-12-22T11:54:28.339Z,74.22
2017-12-22T11:57:02.777Z,74.58
2017-12-22T11:59:37.241Z,74.41
2017-12-22T12:02:11.608Z,74.22
2017-12-22T12:04:46.178Z,73.85
2017-12-22T12:07:20.979Z,74.26
2017-12-22T12:09:55.431Z,74.48
2017-12-22T12:12:30.023Z,74.42
2017-12-22T12:15:14.106Z,74.45
2017-12-22T12:17:48.678Z,74.61
2017-12-22T12:20:23.380Z,75.02
2017-12-22T12:22:59.259Z,75.24
2017-12-22T12:25:34.467Z,75.56
2017-12-22T12:28:08.967Z,75.52
2017-12-22T12:30:44.134Z,75.70
2017-12-22T12:33:18.571Z,75.71
2017-12-22T12:35:53.902Z,75.91
2017-12-22T12:38:28.302Z,76.49
2017-12-22T12:41:02.802Z,76.48
2017-12-22T12:43:37.958Z,76.94
2017-12-22T12:46:12.494Z,76.97
2017-12-22T12:48:47.020Z,76.61
2017-12-22T12:51:22.362Z,77.10
2017-12-22T12:53:56.875Z,77.33
2017-12-22T12:56:31.352Z,77.32
2017-12-22T12:59:05.783Z,77.25
2017-12-22T13:01:40.223Z,77.13
2017-12-22T13:04:15.593Z,77.49
2017-12-22T13:06:50.108Z,77.29
2017-12-22T13:09:25.290Z,77.36
2017-12-22T13:11:59.559Z,77.65
2017-12-22T13:14:33.899Z,77.98
2017-12-22T13:17:08.803Z,77.34
2017-12-22T13:19:43.217Z,77.39
2017-12-22T13:22:17.604Z,77.53
2017-12-22T13:24:51.966Z,76.78
2017-12-22T13:27:26.390Z,76.61
2017-12-22T13:30:00.899Z,76.02
2017-12-22T13:32:35.288Z,76.06
2017-12-22T13:35:11.150Z,76.05
2017-12-22T13:37:45.416Z,76.59
2017-12-22T13:40:19.908Z,76.67
2017-12-22T13:42:54.333Z,77.17
2017-12-22T13:45:28.786Z,77.47
2017-12-22T13:48:03.254Z,77.90
2017-12-22T13:50:37.733Z,78.17
2017-12-22T13:53:12.109Z,77.83
2017-12-22T13:55:46.986Z,78.33
2017-12-22T13:58:21.484Z,78.24
2017-12-22T14:00:57.096Z,78.35
2017-12-22T14:03:31.754Z,78.54
2017-12-22T14:06:06.138Z,78.73
2017-12-22T14:08:41.435Z,78.55
2017-12-22T14:11:16.043Z,78.62
2017-12-22T14:13:50.553Z,78.37
2017-12-22T14:16:24.926Z,78.45
2017-12-22T14:18:59.352Z,78.41
2017-12-22T14:21:33.846Z,78.17
2017-12-22T14:24:08.339Z,78.40
2017-12-22T14:26:42.826Z,78.34
2017-12-22T14:29:17.329Z,78.06
2017-12-22T14:31:51.777Z,78.37
2017-12-22T14:34:26.370Z,78.24
2017-12-22T14:37:00.855Z,78.47
2017-12-22T14:39:35.423Z,78.61
2017-12-22T14:42:09.832Z,78.73
2017-12-22T14:44:44.346Z,78.72
2017-12-22T14:47:18.738Z,78.89
2017-12-22T14:49:53.327Z,79.30
2017-12-22T14:52:27.708Z,79.20
2017-12-22T14:55:02.218Z,79.43
2017-12-22T14:57:38.308Z,79.59
2017-12-22T15:00:12.707Z,79.81
2017-12-22T15:02:47.215Z,79.67
2017-12-22T15:05:21.616Z,79.75
2017-12-22T15:07:55.965Z,79.67
2017-12-22T15:10:30.440Z,79.66
2017-12-22T15:13:04.884Z,79.44
2017-12-22T15:15:39.406Z,79.39
2017-12-22T15:18:13.834Z,79.34
2017-12-22T15:20:48.210Z,79.19
2017-12-22T15:23:22.711Z,79.08
2017-12-22T15:25:59.482Z,79.00
2017-12-22T15:28:34.084Z,79.13
2017-12-22T15:31:08.434Z,79.17
2017-12-22T15:33:43.491Z,79.36
2017-12-22T15:36:18.140Z,79.59
2017-12-22T15:38:52.542Z,79.70
2017-12-22T15:41:27.462Z,79.84
2017-12-22T15:44:02.882Z,79.92
2017-12-22T15:46:38.103Z,80.12
2017-12-22T15:49:13.441Z,80.25
2017-12-22T15:51:47.798Z,80.04
2017-12-22T15:54:22.299Z,80.33
2017-12-22T15:56:56.771Z,80.63
2017-12-22T15:59:31.217Z,80.56
2017-12-22T16:02:05.629Z,80.68
2017-12-22T16:04:40.185Z,80.62
2017-12-22T16:07:14.582Z,80.70
2017-12-22T16:09:49.032Z,80.55
2017-12-22T16:12:24.310Z,80.44
2017-12-22T16:14:59.236Z,80.56
2017-12-22T16:17:33.863Z,80.15
2017-12-22T16:20:09.595Z,79.92
2017-12-22T16:22:44.174Z,79.87
2017-12-22T16:25:18.657Z,79.84
2017-12-22T16:27:53.584Z,79.66
2017-12-22T16:30:27.974Z,79.74
2017-12-22T16:33:03.403Z,80.01
2017-12-22T16:35:38.422Z,79.98
2017-12-22T16:38:12.954Z,80.10
2017-12-22T16:40:47.414Z,80.19
2017-12-22T16:43:23.510Z,80.23
2017-12-22T16:46:01.130Z,80.21
2017-12-22T16:48:35.542Z,80.12
2017-12-22T16:51:09.998Z,80.04
2017-12-22T16:53:45.210Z,79.95
2017-12-22T16:56:19.773Z,79.86
2017-12-22T16:58:55.130Z,79.75
2017-12-22T17:01:30.746Z,79.56
2017-12-22T17:04:05.147Z,79.56
2017-12-22T17:06:39.794Z,79.43
2017-12-22T17:09:14.210Z,79.64
2017-12-22T17:11:48.769Z,79.46
2017-12-22T17:14:23.207Z,79.43
2017-12-22T17:16:57.668Z,79.30
2017-12-22T17:19:32.109Z,79.26
2017-12-22T17:22:06.530Z,79.41
2017-12-22T17:24:41.011Z,79.48
2017-12-22T17:27:15.803Z,79.46
2017-12-22T17:29:50.380Z,79.56
2017-12-22T17:32:24.837Z,79.77
2017-12-22T17:34:59.207Z,79.63
2017-12-22T17:37:33.594Z,79.79
2017-12-22T17:40:08.546Z,79.85
2017-12-22T17:42:43.037Z,79.74
2017-12-22T17:45:18.223Z,79.94
2017-12-22T17:47:52.755Z,79.85
2017-12-22T17:50:27.866Z,79.76
2017-12-22T17:53:02.383Z,79.81
2017-12-22T17:55:37.626Z,79.78
2017-12-22T17:58:12.234Z,79.85
2017-12-22T18:00:46.631Z,79.80
2017-12-22T18:03:21.761Z,79.78
2017-12-22T18:05:56.033Z,79.75
2017-12-22T18:08:30.189Z,79.80
2017-12-22T18:11:04.611Z,79.62
2017-12-22T18:13:39.044Z,79.71
2017-12-22T18:16:13.489Z,79.51
2017-12-22T18:18:48.059Z,79.55
2017-12-22T18:21:22.648Z,79.05
2017-12-22T18:23:57.446Z,78.91
2017-12-22T18:26:34.378Z,78.96
2017-12-22T18:29:08.795Z,78.67
2017-12-22T18:31:43.154Z,78.27
2017-12-22T18:34:17.572Z,78.36
2017-12-22T18:36:52.102Z,78.46
2017-12-22T18:39:26.646Z,78.16
2017-12-22T18:42:01.137Z,78.46
2017-12-22T18:44:36.485Z,78.48
2017-12-22T18:47:11.435Z,78.55
2017-12-22T18:49:46.646Z,78.23
2017-12-22T18:52:21.257Z,78.25
2017-12-22T18:54:55.830Z,78.36
2017-12-22T18:57:30.225Z,78.28
2017-12-22T19:00:13.548Z,78.40
2017-12-22T19:02:47.915Z,78.38
2017-12-22T19:05:23.958Z,78.28
2017-12-22T19:07:58.553Z,77.94
2017-12-22T19:10:33.019Z,77.28
2017-12-22T19:13:07.482Z,77.20
2017-12-22T19:15:42.190Z,77.50
2017-12-22T19:18:16.589Z,77.30
2017-12-22T19:20:51.834Z,77.11
2017-12-22T19:23:26.252Z,77.02
2017-12-22T19:26:01.342Z,76.77
2017-12-22T19:28:35.936Z,76.59
2017-12-22T19:31:10.595Z,76.23
2017-12-22T19:33:45.245Z,76.31
2017-12-22T19:36:20.140Z,75.79
2017-12-22T19:38:54.797Z,75.67
2017-12-22T19:41:29.211Z,75.72
2017-12-22T19:44:03.751Z,75.70
2017-12-22T19:46:38.163Z,75.47
2017-12-22T19:49:12.666Z,75.25
2017-12-22T19:51:48.094Z,75.31
2017-12-22T19:54:23.186Z,75.06
2017-12-22T19:56:57.739Z,74.50
2017-12-22T19:59:32.242Z,74.64
2017-12-22T20:02:06.886Z,74.42
2017-12-22T20:04:41.438Z,74.09
2017-12-22T20:07:15.886Z,73.94
2017-12-22T20:09:50.498Z,73.82
2017-12-22T20:12:24.968Z,73.69
2017-12-22T20:14:59.541Z,73.50
2017-12-22T20:17:33.922Z,73.33
2017-12-22T20:20:14.707Z,73.23
2017-12-22T20:22:50.147Z,73.54
2017-12-22T20:25:24.699Z,73.53
2017-12-22T20:28:00.109Z,73.46
2017-12-22T20:30:34.642Z,73.04
2017-12-22T20:33:09.171Z,73.07
2017-12-22T20:35:43.627Z,73.23
2017-12-22T20:38:18.160Z,72.83
2017-12-22T20:40:52.662Z,72.78
2017-12-22T20:43:27.186Z,72.90
2017-12-22T20:46:01.731Z,73.14
2017-12-22T20:48:36.245Z,73.24
2017-12-22T20:51:10.657Z,73.32
2017-12-22T20:53:45.193Z,73.40
2017-12-22T20:56:19.664Z,73.38
2017-12-22T20:58:54.200Z,73.13
2017-12-22T21:01:28.687Z,73.18
2017-12-22T21:04:03.212Z,73.51
2017-12-22T21:06:37.624Z,73.42
2017-12-22T21:09:12.901Z,73.53
2017-12-22T21:11:48.130Z,73.73
2017-12-22T21:14:22.783Z,73.41
2017-12-22T21:16:57.178Z,72.87
2017-12-22T21:19:31.634Z,72.64
2017-12-22T21:22:06.007Z,72.57
2017-12-22T21:24:40.649Z,72.33
2017-12-22T21:27:15.103Z,72.48
2017-12-22T21:29:50.513Z,72.07
2017-12-22T21:32:25.058Z,72.01
2017-12-22T21:35:02.331Z,71.98
2017-12-22T21:37:42.255Z,71.71
2017-12-22T21:40:16.824Z,71.53
2017-12-22T21:42:51.411Z,71.64
2017-12-22T21:45:25.775Z,71.45
2017-12-22T21:48:01.112Z,71.61
2017-12-22T21:50:35.513Z,71.69
2017-12-22T21:53:10.162Z,71.86
2017-12-22T21:55:44.561Z,71.96
2017-12-22T21:58:19.105Z,71.99
2017-12-22T22:00:53.426Z,71.83
2017-12-22T22:03:27.850Z,71.59
2017-12-22T22:06:02.366Z,71.93
2017-12-22T22:08:36.834Z,71.88
2017-12-22T22:11:11.199Z,72.02
2017-12-22T22:13:45.714Z,72.28
2017-12-22T22:16:20.116Z,72.23
2017-12-22T22:18:54.486Z,72.29
2017-12-22T22:21:28.983Z,72.59
2017-12-22T22:24:03.577Z,72.79
2017-12-22T22:26:38.011Z,72.91
2017-12-22T22:29:12.538Z,72.85
2017-12-22T22:31:47.026Z,73.09
2017-12-22T22:34:21.676Z,73.33
2017-12-22T22:36:56.299Z,73.54
2017-12-22T22:39:30.784Z,73.58
2017-12-22T22:42:05.244Z,73.59
2017-12-22T22:44:39.842Z,73.72
2017-12-22T22:47:14.433Z,73.71
2017-12-22T22:49:49.044Z,73.57
2017-12-22T22:52:23.419Z,73.34
2017-12-22T22:54:58.074Z,73.65
2017-12-22T22:57:32.460Z,73.70
2017-12-22T23:00:14.888Z,73.75
2017-12-22T23:02:49.485Z,74.02
2017-12-22T23:05:24.628Z,73.89
2017-12-22T23:07:59.187Z,74.14
2017-12-22T23:10:33.561Z,74.10
2017-12-22T23:13:08.038Z,74.09
2017-12-22T23:15:42.995Z,74.43
2017-12-22T23:18:17.515Z,74.42
2017-12-22T23:20:52.112Z,74.23
2017-12-22T23:23:26.491Z,74.32
2017-12-22T23:26:00.908Z,74.51
2017-12-22T23:28:35.429Z,74.62
2017-12-22T23:31:10.269Z,74.81
2017-12-22T23:33:44.755Z,74.88
2017-12-22T23:36:19.238Z,74.90
2017-12-22T23:38:53.789Z,74.89
2017-12-22T23:41:28.241Z,74.92
2017-12-22T23:44:02.808Z,74.77
2017-12-22T23:46:37.162Z,74.13
2017-12-22T23:49:11.845Z,73.92
2017-12-22T23:51:46.417Z,73.71
2017-12-22T23:54:20.922Z,73.18
2017-12-22T23:56:55.425Z,73.07
2017-12-22T23:59:30.009Z,72.57
